sensor_id;sensor_type;location;lat;lon;timestamp;pressure;altitude;pressure_sealevel;temperature
48854;BMP280;34673;52.808;17.856;2024-01-11T00:02:02;101494.31;;;-4.91
48854;BMP280;34673;52.808;17.856;2024-01-11T00:04:29;101491.78;;;-4.91
48854;BMP280;34673;52.808;17.856;2024-01-11T00:06:56;101490.28;;;-4.88
48854;BMP280;34673;52.808;17.856;2024-01-11T00:09:24;101476.44;;;-4.94
48854;BMP280;34673;52.808;17.856;2024-01-11T00:11:50;101481.25;;;-4.97
48854;BMP280;34673;52.808;17.856;2024-01-11T00:14:18;101480.38;;;-4.97
48854;BMP280;34673;52.808;17.856;2024-01-11T00:16:45;101452.53;;;-4.99
48854;BMP280;34673;52.808;17.856;2024-01-11T00:19:12;101451.09;;;-5.07
48854;BMP280;34673;52.808;17.856;2024-01-11T00:21:39;101450.75;;;-5.00
48854;BMP280;34673;52.808;17.856;2024-01-11T00:24:07;101430.34;;;-5.03
48854;BMP280;34673;52.808;17.856;2024-01-11T00:26:35;101439.69;;;-5.02
48854;BMP280;34673;52.808;17.856;2024-01-11T00:29:03;101448.22;;;-5.00
48854;BMP280;34673;52.808;17.856;2024-01-11T00:31:30;101449.22;;;-4.98
48854;BMP280;34673;52.808;17.856;2024-01-11T00:33:57;101452.53;;;-4.99
48854;BMP280;34673;52.808;17.856;2024-01-11T00:36:24;101457.09;;;-5.05
48854;BMP280;34673;52.808;17.856;2024-01-11T00:38:51;101482.81;;;-4.99
48854;BMP280;34673;52.808;17.856;2024-01-11T00:41:18;101479.50;;;-4.98
48854;BMP280;34673;52.808;17.856;2024-01-11T00:43:46;101474.66;;;-4.95
48854;BMP280;34673;52.808;17.856;2024-01-11T00:46:13;101476.44;;;-4.94
48854;BMP280;34673;52.808;17.856;2024-01-11T00:48:40;101470.75;;;-4.91
48854;BMP280;34673;52.808;17.856;2024-01-11T00:51:07;101470.50;;;-4.94
48854;BMP280;34673;52.808;17.856;2024-01-11T00:53:34;101462.38;;;-4.90
48854;BMP280;34673;52.808;17.856;2024-01-11T00:56:01;101451.63;;;-4.87
48854;BMP280;34673;52.808;17.856;2024-01-11T00:58:29;101454.94;;;-4.88
48854;BMP280;34673;52.808;17.856;2024-01-11T01:00:56;101453.38;;;-4.86
48854;BMP280;34673;52.808;17.856;2024-01-11T01:03:23;101435.06;;;-4.84
48854;BMP280;34673;52.808;17.856;2024-01-11T01:05:50;101435.72;;;-4.86
48854;BMP280;34673;52.808;17.856;2024-01-11T01:08:17;101428.34;;;-4.83
48854;BMP280;34673;52.808;17.856;2024-01-11T01:10:44;101436.19;;;-4.80
48854;BMP280;34673;52.808;17.856;2024-01-11T01:13:11;101440.44;;;-4.79
48854;BMP280;34673;52.808;17.856;2024-01-11T01:15:39;101437.13;;;-4.78
48854;BMP280;34673;52.808;17.856;2024-01-11T01:18:06;101444.19;;;-4.74
48854;BMP280;34673;52.808;17.856;2024-01-11T01:20:33;101457.78;;;-4.72
48854;BMP280;34673;52.808;17.856;2024-01-11T01:23:01;101449.22;;;-4.74
48854;BMP280;34673;52.808;17.856;2024-01-11T01:25:28;101429.25;;;-4.71
48854;BMP280;34673;52.808;17.856;2024-01-11T01:27:55;101430.78;;;-4.73
48854;BMP280;34673;52.808;17.856;2024-01-11T01:30:22;101459.75;;;-4.68
48854;BMP280;34673;52.808;17.856;2024-01-11T01:32:50;101434.72;;;-4.65
48854;BMP280;34673;52.808;17.856;2024-01-11T01:35:17;101425.47;;;-4.64
48854;BMP280;34673;52.808;17.856;2024-01-11T01:37:44;101435.13;;;-4.59
48854;BMP280;34673;52.808;17.856;2024-01-11T01:40:12;101428.34;;;-4.60
48854;BMP280;34673;52.808;17.856;2024-01-11T01:42:43;101440.63;;;-4.53
48854;BMP280;34673;52.808;17.856;2024-01-11T01:45:15;101434.94;;;-4.50
48854;BMP280;34673;52.808;17.856;2024-01-11T01:47:43;101430.75;;;-4.50
48854;BMP280;34673;52.808;17.856;2024-01-11T01:50:11;101427.22;;;-4.52
48854;BMP280;34673;52.808;17.856;2024-01-11T01:52:41;101434.13;;;-4.49
48854;BMP280;34673;52.808;17.856;2024-01-11T01:55:10;101441.06;;;-4.47
48854;BMP280;34673;52.808;17.856;2024-01-11T01:57:40;101437.75;;;-4.46
48854;BMP280;34673;52.808;17.856;2024-01-11T02:00:08;101424.00;;;-4.37
48854;BMP280;34673;52.808;17.856;2024-01-11T02:02:39;101416.44;;;-4.37
48854;BMP280;34673;52.808;17.856;2024-01-11T02:05:06;101408.31;;;-4.33
48854;BMP280;34673;52.808;17.856;2024-01-11T02:07:35;101408.50;;;-4.30
48854;BMP280;34673;52.808;17.856;2024-01-11T02:10:02;101398.19;;;-4.33
48854;BMP280;34673;52.808;17.856;2024-01-11T02:12:30;101389.16;;;-4.30
48854;BMP280;34673;52.808;17.856;2024-01-11T02:14:57;101411.56;;;-4.22
48854;BMP280;34673;52.808;17.856;2024-01-11T02:17:24;101427.78;;;-4.19
48854;BMP280;34673;52.808;17.856;2024-01-11T02:19:51;101423.72;;;-4.17
48854;BMP280;34673;52.808;17.856;2024-01-11T02:22:22;101419.66;;;-4.15
48854;BMP280;34673;52.808;17.856;2024-01-11T02:24:50;101421.41;;;-4.14
48854;BMP280;34673;52.808;17.856;2024-01-11T02:27:19;101445.13;;;-4.12
48854;BMP280;34673;52.808;17.856;2024-01-11T02:29:47;101451.06;;;-4.11
48854;BMP280;34673;52.808;17.856;2024-01-11T02:32:14;101448.66;;;-4.10
48854;BMP280;34673;52.808;17.856;2024-01-11T02:34:41;101462.25;;;-4.08
48854;BMP280;34673;52.808;17.856;2024-01-11T02:37:08;101460.03;;;-4.03
48854;BMP280;34673;52.808;17.856;2024-01-11T02:39:35;101451.69;;;-4.02
48854;BMP280;34673;52.808;17.856;2024-01-11T02:42:03;101449.06;;;-4.04
48854;BMP280;34673;52.808;17.856;2024-01-11T02:44:30;101450.25;;;-3.98
48854;BMP280;34673;52.808;17.856;2024-01-11T02:46:57;101449.69;;;-3.94
48854;BMP280;34673;52.808;17.856;2024-01-11T02:49:24;101437.03;;;-3.94
48854;BMP280;34673;52.808;17.856;2024-01-11T02:51:51;101417.41;;;-3.98
48854;BMP280;34673;52.808;17.856;2024-01-11T02:54:18;101424.59;;;-3.91
48854;BMP280;34673;52.808;17.856;2024-01-11T02:56:45;101412.94;;;-3.89
48854;BMP280;34673;52.808;17.856;2024-01-11T02:59:12;101413.16;;;-3.86
48854;BMP280;34673;52.808;17.856;2024-01-11T03:01:40;101404.69;;;-3.87
48854;BMP280;34673;52.808;17.856;2024-01-11T03:04:07;101396.34;;;-3.86
48854;BMP280;34673;52.808;17.856;2024-01-11T03:06:34;101398.78;;;-3.87
48854;BMP280;34673;52.808;17.856;2024-01-11T03:09:01;101414.25;;;-3.83
48854;BMP280;34673;52.808;17.856;2024-01-11T03:11:28;101396.66;;;-3.81
48854;BMP280;34673;52.808;17.856;2024-01-11T03:13:55;101383.22;;;-3.80
48854;BMP280;34673;52.808;17.856;2024-01-11T03:16:22;101386.72;;;-3.78
48854;BMP280;34673;52.808;17.856;2024-01-11T03:18:49;101386.94;;;-3.75
48854;BMP280;34673;52.808;17.856;2024-01-11T03:21:17;101373.53;;;-3.74
48854;BMP280;34673;52.808;17.856;2024-01-11T03:23:45;101344.94;;;-3.73
48854;BMP280;34673;52.808;17.856;2024-01-11T03:26:16;101351.84;;;-3.70
48854;BMP280;34673;52.808;17.856;2024-01-11T03:28:44;101348.66;;;-3.68
48854;BMP280;34673;52.808;17.856;2024-01-11T03:31:11;101360.69;;;-3.64
48854;BMP280;34673;52.808;17.856;2024-01-11T03:33:38;101358.09;;;-3.65
48854;BMP280;34673;52.808;17.856;2024-01-11T03:36:07;101335.41;;;-3.64
48854;BMP280;34673;52.808;17.856;2024-01-11T03:38:34;101321.13;;;-3.63
48854;BMP280;34673;52.808;17.856;2024-01-11T03:41:02;101324.41;;;-3.64
48854;BMP280;34673;52.808;17.856;2024-01-11T03:43:34;101325.53;;;-3.61
48854;BMP280;34673;52.808;17.856;2024-01-11T03:46:01;101309.56;;;-3.60
48854;BMP280;34673;52.808;17.856;2024-01-11T03:48:30;101295.38;;;-3.58
48854;BMP280;34673;52.808;17.856;2024-01-11T03:50:57;101296.44;;;-3.54
48854;BMP280;34673;52.808;17.856;2024-01-11T03:53:24;101298.28;;;-3.51
48854;BMP280;34673;52.808;17.856;2024-01-11T03:55:51;101295.75;;;-3.51
48854;BMP280;34673;52.808;17.856;2024-01-11T03:58:18;101293.41;;;-3.48
48854;BMP280;34673;52.808;17.856;2024-01-11T04:00:45;101262.69;;;-3.68
48854;BMP280;34673;52.808;17.856;2024-01-11T04:03:12;101302.97;;;-3.44
48854;BMP280;34673;52.808;17.856;2024-01-11T04:05:39;101302.06;;;-3.45
48854;BMP280;34673;52.808;17.856;2024-01-11T04:08:07;101292.44;;;-3.50
48854;BMP280;34673;52.808;17.856;2024-01-11T04:10:34;101289.53;;;-3.43
48854;BMP280;34673;52.808;17.856;2024-01-11T04:13:01;101288.06;;;-3.40
48854;BMP280;34673;52.808;17.856;2024-01-11T04:15:28;101278.84;;;-3.39
48854;BMP280;34673;52.808;17.856;2024-01-11T04:17:55;101276.50;;;-3.36
48854;BMP280;34673;52.808;17.856;2024-01-11T04:20:22;101264.78;;;-3.34
48854;BMP280;34673;52.808;17.856;2024-01-11T04:22:51;101266.44;;;-3.35
48854;BMP280;34673;52.808;17.856;2024-01-11T04:25:18;101269.84;;;-3.34
48854;BMP280;34673;52.808;17.856;2024-01-11T04:27:45;101258.00;;;-3.35
48854;BMP280;34673;52.808;17.856;2024-01-11T04:30:12;101258.19;;;-3.32
48854;BMP280;34673;52.808;17.856;2024-01-11T04:32:39;101258.19;;;-3.32
48854;BMP280;34673;52.808;17.856;2024-01-11T04:35:07;101255.66;;;-3.32
48854;BMP280;34673;52.808;17.856;2024-01-11T04:37:34;101248.25;;;-3.29
48854;BMP280;34673;52.808;17.856;2024-01-11T04:40:03;101239.09;;;-3.27
48854;BMP280;34673;52.808;17.856;2024-01-11T04:42:30;101227.50;;;-3.23
48854;BMP280;34673;52.808;17.856;2024-01-11T04:44:57;101210.59;;;-3.24
48854;BMP280;34673;52.808;17.856;2024-01-11T04:47:24;101206.41;;;-3.24
48854;BMP280;34673;52.808;17.856;2024-01-11T04:49:51;101219.03;;;-3.24
48854;BMP280;34673;52.808;17.856;2024-01-11T04:52:18;101213.41;;;-3.20
48854;BMP280;34673;52.808;17.856;2024-01-11T04:54:45;101212.53;;;-3.20
48854;BMP280;34673;52.808;17.856;2024-01-11T04:57:12;101211.63;;;-3.21
48854;BMP280;34673;52.808;17.856;2024-01-11T04:59:39;101216.88;;;-3.18
48854;BMP280;34673;52.808;17.856;2024-01-11T05:02:06;101203.47;;;-3.17
48854;BMP280;34673;52.808;17.856;2024-01-11T05:04:34;101202.41;;;-3.20
48854;BMP280;34673;52.808;17.856;2024-01-11T05:07:01;101210.44;;;-3.13
48854;BMP280;34673;52.808;17.856;2024-01-11T05:09:28;101220.38;;;-3.16
48854;BMP280;34673;52.808;17.856;2024-01-11T05:11:55;101219.81;;;-3.12
48854;BMP280;34673;52.808;17.856;2024-01-11T05:14:22;101219.19;;;-3.07
48854;BMP280;34673;52.808;17.856;2024-01-11T05:16:49;101219.00;;;-3.10
48854;BMP280;34673;52.808;17.856;2024-01-11T05:19:17;101216.66;;;-3.07
48854;BMP280;34673;52.808;17.856;2024-01-11T05:21:44;101239.81;;;-3.01
48854;BMP280;34673;52.808;17.856;2024-01-11T05:24:11;101231.44;;;-3.00
48854;BMP280;34673;52.808;17.856;2024-01-11T05:26:38;101221.16;;;-3.03
48854;BMP280;34673;52.808;17.856;2024-01-11T05:29:05;101223.06;;;-2.99
48854;BMP280;34673;52.808;17.856;2024-01-11T05:31:32;101226.56;;;-2.97
48854;BMP280;34673;52.808;17.856;2024-01-11T05:34:00;101219.94;;;-2.95
48854;BMP280;34673;52.808;17.856;2024-01-11T05:36:27;101213.31;;;-2.93
48854;BMP280;34673;52.808;17.856;2024-01-11T05:38:54;101208.44;;;-2.90
48854;BMP280;34673;52.808;17.856;2024-01-11T05:41:21;101199.19;;;-2.90
48854;BMP280;34673;52.808;17.856;2024-01-11T05:43:49;101201.78;;;-2.88
48854;BMP280;34673;52.808;17.856;2024-01-11T05:46:16;101193.44;;;-2.87
48854;BMP280;34673;52.808;17.856;2024-01-11T05:48:43;101194.41;;;-2.85
48854;BMP280;34673;52.808;17.856;2024-01-11T05:51:10;101196.16;;;-2.84
48854;BMP280;34673;52.808;17.856;2024-01-11T05:53:37;101203.75;;;-2.84
48854;BMP280;34673;52.808;17.856;2024-01-11T05:56:08;101211.63;;;-2.79
48854;BMP280;34673;52.808;17.856;2024-01-11T05:58:36;101198.06;;;-2.80
48854;BMP280;34673;52.808;17.856;2024-01-11T06:01:05;101197.47;;;-2.76
48854;BMP280;34673;52.808;17.856;2024-01-11T06:03:32;101189.06;;;-2.75
48854;BMP280;34673;52.808;17.856;2024-01-11T06:06:02;101190.91;;;-2.72
48854;BMP280;34673;52.808;17.856;2024-01-11T06:08:30;101200.97;;;-2.74
48854;BMP280;34673;52.808;17.856;2024-01-11T06:10:58;101185.16;;;-2.70
48854;BMP280;34673;52.808;17.856;2024-01-11T06:13:25;101201.41;;;-2.66
48854;BMP280;34673;52.808;17.856;2024-01-11T06:15:53;101184.56;;;-2.65
48854;BMP280;34673;52.808;17.856;2024-01-11T06:18:20;101182.22;;;-2.62
48854;BMP280;34673;52.808;17.856;2024-01-11T06:20:48;101189.13;;;-2.60
48854;BMP280;34673;52.808;17.856;2024-01-11T06:23:15;101176.34;;;-2.61
48854;BMP280;34673;52.808;17.856;2024-01-11T06:25:44;101163.09;;;-2.57
48854;BMP280;34673;52.808;17.856;2024-01-11T06:28:13;101185.25;;;-2.53
48854;BMP280;34673;52.808;17.856;2024-01-11T06:30:40;101186.84;;;-2.55
48854;BMP280;34673;52.808;17.856;2024-01-11T06:33:07;101199.06;;;-2.48
48854;BMP280;34673;52.808;17.856;2024-01-11T06:35:35;101190.69;;;-2.47
48854;BMP280;34673;52.808;17.856;2024-01-11T06:38:02;101195.94;;;-2.44
48854;BMP280;34673;52.808;17.856;2024-01-11T06:40:29;101189.28;;;-2.42
48854;BMP280;34673;52.808;17.856;2024-01-11T06:42:56;101172.53;;;-2.40
48854;BMP280;34673;52.808;17.856;2024-01-11T06:45:23;101170.97;;;-2.38
48854;BMP280;34673;52.808;17.856;2024-01-11T06:47:50;101167.47;;;-2.40
48854;BMP280;34673;52.808;17.856;2024-01-11T06:50:17;101167.47;;;-2.40
48854;BMP280;34673;52.808;17.856;2024-01-11T06:52:44;101162.38;;;-2.40
48854;BMP280;34673;52.808;17.856;2024-01-11T06:55:11;101171.28;;;-2.32
48854;BMP280;34673;52.808;17.856;2024-01-11T06:57:38;101182.31;;;-2.31
48854;BMP280;34673;52.808;17.856;2024-01-11T07:00:06;101181.59;;;-2.29
48854;BMP280;34673;52.808;17.856;2024-01-11T07:02:37;101173.25;;;-2.28
48854;BMP280;34673;52.808;17.856;2024-01-11T07:05:04;101183.44;;;-2.26
48854;BMP280;34673;52.808;17.856;2024-01-11T07:07:31;101170.59;;;-2.29
48854;BMP280;34673;52.808;17.856;2024-01-11T07:09:59;101170.88;;;-2.25
48854;BMP280;34673;52.808;17.856;2024-01-11T07:12:26;101154.53;;;-2.30
48854;BMP280;34673;52.808;17.856;2024-01-11T07:14:53;101154.88;;;-2.24
48854;BMP280;34673;52.808;17.856;2024-01-11T07:17:20;101166.94;;;-2.19
48854;BMP280;34673;52.808;17.856;2024-01-11T07:19:47;101171.22;;;-2.18
48854;BMP280;34673;52.808;17.856;2024-01-11T07:22:15;101156.97;;;-2.16
48854;BMP280;34673;52.808;17.856;2024-01-11T07:24:42;101149.25;;;-2.18
48854;BMP280;34673;52.808;17.856;2024-01-11T07:27:09;101165.59;;;-2.13
48854;BMP280;34673;52.808;17.856;2024-01-11T07:29:36;101174.06;;;-2.12
48854;BMP280;34673;52.808;17.856;2024-01-11T07:32:04;101167.44;;;-2.10
48854;BMP280;34673;52.808;17.856;2024-01-11T07:34:31;101164.09;;;-2.09
48854;BMP280;34673;52.808;17.856;2024-01-11T07:36:59;101160.09;;;-2.06
48854;BMP280;34673;52.808;17.856;2024-01-11T07:39:26;101162.72;;;-2.04
48854;BMP280;34673;52.808;17.856;2024-01-11T07:41:54;101158.59;;;-2.02
48854;BMP280;34673;52.808;17.856;2024-01-11T07:44:21;101146.63;;;-2.05
48854;BMP280;34673;52.808;17.856;2024-01-11T07:46:48;101161.31;;;-1.99
48854;BMP280;34673;52.808;17.856;2024-01-11T07:49:20;101160.59;;;-1.96
48854;BMP280;34673;52.808;17.856;2024-01-11T07:51:48;101155.47;;;-1.98
48854;BMP280;34673;52.808;17.856;2024-01-11T07:54:16;101159.91;;;-1.94
48854;BMP280;34673;52.808;17.856;2024-01-11T07:56:43;101160.00;;;-1.92
48854;BMP280;34673;52.808;17.856;2024-01-11T07:59:10;101161.84;;;-1.90
48854;BMP280;34673;52.808;17.856;2024-01-11T08:01:42;101162.75;;;-1.88
48854;BMP280;34673;52.808;17.856;2024-01-11T08:04:09;101151.84;;;-1.87
48854;BMP280;34673;52.808;17.856;2024-01-11T08:06:36;101151.03;;;-1.86
48854;BMP280;34673;52.808;17.856;2024-01-11T08:09:04;101139.94;;;-1.88
48854;BMP280;34673;52.808;17.856;2024-01-11T08:11:32;101145.19;;;-1.85
48854;BMP280;34673;52.808;17.856;2024-01-11T08:14:04;101147.09;;;-1.81
48854;BMP280;34673;52.808;17.856;2024-01-11T08:16:33;101140.47;;;-1.79
48854;BMP280;34673;52.808;17.856;2024-01-11T08:19:00;101136.16;;;-1.80
48854;BMP280;34673;52.808;17.856;2024-01-11T08:21:30;101136.50;;;-1.73
48854;BMP280;34673;52.808;17.856;2024-01-11T08:23:57;101139.22;;;-1.70
48854;BMP280;34673;52.808;17.856;2024-01-11T08:26:29;101140.94;;;-1.69
48854;BMP280;34673;52.808;17.856;2024-01-11T08:28:57;101139.38;;;-1.67
48854;BMP280;34673;52.808;17.856;2024-01-11T08:31:25;101142.69;;;-1.68
48854;BMP280;34673;52.808;17.856;2024-01-11T08:33:53;101148.66;;;-1.68
48854;BMP280;34673;52.808;17.856;2024-01-11T08:36:20;101158.25;;;-1.62
48854;BMP280;34673;52.808;17.856;2024-01-11T08:38:47;101151.59;;;-1.60
48854;BMP280;34673;52.808;17.856;2024-01-11T08:41:15;101149.13;;;-1.59
48854;BMP280;34673;52.808;17.856;2024-01-11T08:43:42;101147.56;;;-1.57
48854;BMP280;34673;52.808;17.856;2024-01-11T08:46:09;101145.09;;;-1.55
48854;BMP280;34673;52.808;17.856;2024-01-11T08:48:36;101153.66;;;-1.53
48854;BMP280;34673;52.808;17.856;2024-01-11T08:51:03;101167.31;;;-1.51
48854;BMP280;34673;52.808;17.856;2024-01-11T08:53:31;101166.50;;;-1.50
48854;BMP280;34673;52.808;17.856;2024-01-11T08:55:58;101171.75;;;-1.47
48854;BMP280;34673;52.808;17.856;2024-01-11T08:58:25;101171.56;;;-1.50
48854;BMP280;34673;52.808;17.856;2024-01-11T09:00:53;101176.03;;;-1.46
48854;BMP280;34673;52.808;17.856;2024-01-11T09:03:20;101181.28;;;-1.43
48854;BMP280;34673;52.808;17.856;2024-01-11T09:05:48;101172.88;;;-1.42
48854;BMP280;34673;52.808;17.856;2024-01-11T09:08:15;101170.56;;;-1.37
48854;BMP280;34673;52.808;17.856;2024-01-11T09:10:42;101161.13;;;-1.40
48854;BMP280;34673;52.808;17.856;2024-01-11T09:13:09;101162.09;;;-1.38
48854;BMP280;34673;52.808;17.856;2024-01-11T09:15:40;101175.09;;;-1.31
48854;BMP280;34673;52.808;17.856;2024-01-11T09:18:07;101178.59;;;-1.29
48854;BMP280;34673;52.808;17.856;2024-01-11T09:20:35;101180.34;;;-1.28
48854;BMP280;34673;52.808;17.856;2024-01-11T09:23:02;101180.34;;;-1.28
48854;BMP280;34673;52.808;17.856;2024-01-11T09:25:30;101178.91;;;-1.23
48854;BMP280;34673;52.808;17.856;2024-01-11T09:27:58;101174.00;;;-1.20
48854;BMP280;34673;52.808;17.856;2024-01-11T09:30:25;101171.47;;;-1.20
48854;BMP280;34673;52.808;17.856;2024-01-11T09:32:52;101173.38;;;-1.16
48854;BMP280;34673;52.808;17.856;2024-01-11T09:35:21;101171.00;;;-1.13
48854;BMP280;34673;52.808;17.856;2024-01-11T09:37:50;101163.44;;;-1.12
48854;BMP280;34673;52.808;17.856;2024-01-11T09:40:18;101166.06;;;-1.10
48854;BMP280;34673;52.808;17.856;2024-01-11T09:42:45;101158.56;;;-1.08
48854;BMP280;34673;52.808;17.856;2024-01-11T09:45:13;101163.78;;;-1.05
48854;BMP280;34673;52.808;17.856;2024-01-11T09:47:45;101158.00;;;-1.03
48854;BMP280;34673;52.808;17.856;2024-01-11T09:50:15;101152.97;;;-1.01
48854;BMP280;34673;52.808;17.856;2024-01-11T09:52:49;101151.50;;;-0.98
48854;BMP280;34673;52.808;17.856;2024-01-11T09:55:17;101157.50;;;-0.96
48854;BMP280;34673;52.808;17.856;2024-01-11T09:57:46;101157.59;;;-0.94
48854;BMP280;34673;52.808;17.856;2024-01-11T10:00:19;101159.31;;;-0.93
48854;BMP280;34673;52.808;17.856;2024-01-11T10:02:49;101156.06;;;-0.91
48854;BMP280;34673;52.808;17.856;2024-01-11T10:05:17;101151.94;;;-0.88
48854;BMP280;34673;52.808;17.856;2024-01-11T10:07:45;101143.38;;;-0.91
48854;BMP280;34673;52.808;17.856;2024-01-11T10:10:15;101155.44;;;-0.86
48854;BMP280;34673;52.808;17.856;2024-01-11T10:12:44;101150.38;;;-0.86
48854;BMP280;34673;52.808;17.856;2024-01-11T10:15:12;101154.72;;;-0.84
48854;BMP280;34673;52.808;17.856;2024-01-11T10:20:13;101152.41;;;-0.79
48854;BMP280;34673;52.808;17.856;2024-01-11T10:22:42;101148.19;;;-0.79
48854;BMP280;34673;52.808;17.856;2024-01-11T10:25:11;101159.53;;;-0.72
48854;BMP280;34673;52.808;17.856;2024-01-11T10:27:43;101149.22;;;-0.75
48854;BMP280;34673;52.808;17.856;2024-01-11T10:30:11;101153.03;;;-0.67
48854;BMP280;34673;52.808;17.856;2024-01-11T10:32:48;101145.47;;;-0.65
48854;BMP280;34673;52.808;17.856;2024-01-11T10:35:16;101153.19;;;-0.64
48854;BMP280;34673;52.808;17.856;2024-01-11T10:37:45;101143.00;;;-0.64
48854;BMP280;34673;52.808;17.856;2024-01-11T10:40:17;101144.75;;;-0.63
48854;BMP280;34673;52.808;17.856;2024-01-11T10:42:45;101147.28;;;-0.63
48854;BMP280;34673;52.808;17.856;2024-01-11T10:45:17;101149.25;;;-0.57
48854;BMP280;34673;52.808;17.856;2024-01-11T10:48:14;101135.06;;;-0.54
48854;BMP280;34673;52.808;17.856;2024-01-11T10:50:44;101135.84;;;-0.55
48854;BMP280;34673;52.808;17.856;2024-01-11T10:55:44;101136.22;;;-0.47
48854;BMP280;34673;52.808;17.856;2024-01-11T10:58:13;101140.56;;;-0.45
48854;BMP280;34673;52.808;17.856;2024-01-11T11:00:40;101136.34;;;-0.44
48854;BMP280;34673;52.808;17.856;2024-01-11T11:03:09;101128.69;;;-0.46
48854;BMP280;34673;52.808;17.856;2024-01-11T11:05:39;101123.75;;;-0.42
48854;BMP280;34673;52.808;17.856;2024-01-11T11:08:09;101133.03;;;-0.43
48854;BMP280;34673;52.808;17.856;2024-01-11T11:10:38;101123.59;;;-0.46
48854;BMP280;34673;52.808;17.856;2024-01-11T11:13:06;101127.25;;;-0.40
48854;BMP280;34673;52.808;17.856;2024-01-11T11:15:35;101121.44;;;-0.38
48854;BMP280;34673;52.808;17.856;2024-01-11T11:18:04;101127.53;;;-0.34
48854;BMP280;34673;52.808;17.856;2024-01-11T11:20:33;101118.31;;;-0.32
48854;BMP280;34673;52.808;17.856;2024-01-11T11:23:06;101122.66;;;-0.30
48854;BMP280;34673;52.808;17.856;2024-01-11T11:25:34;101113.28;;;-0.31
48854;BMP280;34673;52.808;17.856;2024-01-11T11:28:03;101122.00;;;-0.26
48854;BMP280;34673;52.808;17.856;2024-01-11T11:30:36;101110.81;;;-0.29
48854;BMP280;34673;52.808;17.856;2024-01-11T11:33:23;101104.16;;;-0.27
48854;BMP280;34673;52.808;17.856;2024-01-11T11:35:53;101111.09;;;-0.23
48854;BMP280;34673;52.808;17.856;2024-01-11T11:38:28;101102.66;;;-0.22
48854;BMP280;34673;52.808;17.856;2024-01-11T11:40:59;101099.34;;;-0.21
48854;BMP280;34673;52.808;17.856;2024-01-11T11:43:28;101094.41;;;-0.18
48854;BMP280;34673;52.808;17.856;2024-01-11T11:45:56;101088.50;;;-0.17
48854;BMP280;34673;52.808;17.856;2024-01-11T11:53:36;101096.28;;;-0.14
48854;BMP280;34673;52.808;17.856;2024-01-11T11:56:05;101092.00;;;-0.15
48854;BMP280;34673;52.808;17.856;2024-01-11T11:58:34;101099.00;;;-0.11
48854;BMP280;34673;52.808;17.856;2024-01-11T12:01:02;101088.00;;;-0.10
48854;BMP280;34673;52.808;17.856;2024-01-11T12:03:34;101082.09;;;-0.09
48854;BMP280;34673;52.808;17.856;2024-01-11T12:06:05;101077.09;;;-0.07
48854;BMP280;34673;52.808;17.856;2024-01-11T12:08:34;101070.34;;;-0.07
48854;BMP280;34673;52.808;17.856;2024-01-11T12:11:03;101066.22;;;-0.05
48854;BMP280;34673;52.808;17.856;2024-01-11T12:13:31;101062.63;;;-0.08
48854;BMP280;34673;52.808;17.856;2024-01-11T12:15:59;101061.91;;;-0.06
48854;BMP280;34673;52.808;17.856;2024-01-11T12:18:26;101062.00;;;-0.04
48854;BMP280;34673;52.808;17.856;2024-01-11T12:20:54;101064.44;;;-0.06
48854;BMP280;34673;52.808;17.856;2024-01-11T12:23:22;101065.34;;;-0.05
48854;BMP280;34673;52.808;17.856;2024-01-11T12:25:49;101078.25;;;-0.01
48854;BMP280;34673;52.808;17.856;2024-01-11T12:28:16;101077.53;;;0.02
48854;BMP280;34673;52.808;17.856;2024-01-11T12:30:45;101076.75;;;0.03
48854;BMP280;34673;52.808;17.856;2024-01-11T12:33:12;101078.38;;;0.03
48854;BMP280;34673;52.808;17.856;2024-01-11T12:35:40;101069.69;;;-0.03
48854;BMP280;34673;52.808;17.856;2024-01-11T12:38:07;101077.59;;;0.04
48854;BMP280;34673;52.808;17.856;2024-01-11T12:40:37;101072.56;;;0.05
48854;BMP280;34673;52.808;17.856;2024-01-11T12:43:05;101065.03;;;0.07
48854;BMP280;34673;52.808;17.856;2024-01-11T12:45:32;101061.66;;;0.08
48854;BMP280;34673;52.808;17.856;2024-01-11T12:48:00;101070.13;;;0.07
48854;BMP280;34673;52.808;17.856;2024-01-11T12:50:30;101068.44;;;0.07
48854;BMP280;34673;52.808;17.856;2024-01-11T12:53:13;101068.38;;;0.06
48854;BMP280;34673;52.808;17.856;2024-01-11T12:55:48;101063.34;;;0.07
48854;BMP280;34673;52.808;17.856;2024-01-11T12:58:24;101053.97;;;0.06
48854;BMP280;34673;52.808;17.856;2024-01-11T13:00:54;101070.25;;;0.10
48854;BMP280;34673;52.808;17.856;2024-01-11T13:03:22;101066.88;;;0.11
48854;BMP280;34673;52.808;17.856;2024-01-11T13:05:51;101058.34;;;0.09
48854;BMP280;34673;52.808;17.856;2024-01-11T13:08:18;101057.63;;;0.11
48854;BMP280;34673;52.808;17.856;2024-01-11T13:10:47;101054.97;;;0.10
48854;BMP280;34673;52.808;17.856;2024-01-11T13:13:15;101060.22;;;0.13
48854;BMP280;34673;52.808;17.856;2024-01-11T13:15:42;101060.22;;;0.13
48854;BMP280;34673;52.808;17.856;2024-01-11T13:18:09;101055.13;;;0.13
48854;BMP280;34673;52.808;17.856;2024-01-11T13:20:37;101053.53;;;0.15
48854;BMP280;34673;52.808;17.856;2024-01-11T13:25:41;101048.31;;;0.12
48854;BMP280;34673;52.808;17.856;2024-01-11T13:28:09;101063.84;;;0.18
48854;BMP280;34673;52.808;17.856;2024-01-11T13:30:42;101056.88;;;0.14
48854;BMP280;34673;52.808;17.856;2024-01-11T13:33:10;101062.84;;;0.14
48854;BMP280;34673;52.808;17.856;2024-01-11T13:35:40;101066.31;;;0.16
48854;BMP280;34673;52.808;17.856;2024-01-11T13:38:10;101068.78;;;0.15
48854;BMP280;34673;52.808;17.856;2024-01-11T13:40:37;101082.47;;;0.17
48854;BMP280;34673;52.808;17.856;2024-01-11T13:43:06;101074.47;;;0.09
48854;BMP280;34673;52.808;17.856;2024-01-11T13:45:33;101082.47;;;0.17
48854;BMP280;34673;52.808;17.856;2024-01-11T13:48:04;101084.19;;;0.18
48854;BMP280;34673;52.808;17.856;2024-01-11T13:50:32;101087.69;;;0.20
48854;BMP280;34673;52.808;17.856;2024-01-11T13:53:00;101089.41;;;0.21
48854;BMP280;34673;52.808;17.856;2024-01-11T13:55:27;101091.94;;;0.21
48854;BMP280;34673;52.808;17.856;2024-01-11T13:57:56;101093.72;;;0.22
48854;BMP280;34673;52.808;17.856;2024-01-11T14:00:23;101088.63;;;0.22
48854;BMP280;34673;52.808;17.856;2024-01-11T14:02:50;101098.00;;;0.23
48854;BMP280;34673;52.808;17.856;2024-01-11T14:05:18;101099.72;;;0.24